createdAt,value
2022-09-15T00:01:54.555Z,98926.75
2022-09-15T00:04:21.042Z,98914.06
2022-09-15T00:06:47.463Z,98905.72
2022-09-15T00:09:13.880Z,98905.81
2022-09-15T00:11:40.380Z,98913.03
2022-09-15T00:14:08.100Z,98912.03
2022-09-15T00:16:34.835Z,98917.66
2022-09-15T00:19:01.783Z,98911.91
2022-09-15T00:21:31.200Z,98919.84
2022-09-15T00:23:59.500Z,98919.75
2022-09-15T00:26:28.382Z,98921.31
2022-09-15T00:28:56.256Z,98915.00
2022-09-15T00:31:24.905Z,98943.19
2022-09-15T00:33:55.223Z,98951.72
2022-09-15T00:36:22.656Z,98978.41
2022-09-15T00:38:49.131Z,98985.38
2022-09-15T00:41:19.246Z,99018.84
2022-09-15T00:43:45.556Z,99045.56
2022-09-15T00:46:12.717Z,99073.00
2022-09-15T00:48:44.066Z,99089.09
2022-09-15T00:51:14.179Z,99128.78
2022-09-15T00:53:41.399Z,99143.47
2022-09-15T00:56:11.358Z,99142.97
2022-09-15T00:58:50.708Z,99189.16
2022-09-15T01:01:17.484Z,99276.31
2022-09-15T01:03:44.181Z,99275.25
2022-09-15T01:06:38.142Z,99284.53
2022-09-15T01:09:11.897Z,99304.97
2022-09-15T01:11:39.935Z,99308.09
2022-09-15T01:14:06.482Z,99315.94
2022-09-15T01:16:57.851Z,99342.56
2022-09-15T01:19:50.816Z,99360.38
2022-09-15T01:22:29.884Z,99376.88
2022-09-15T01:25:30.515Z,99383.59
2022-09-15T01:28:29.663Z,99399.84
2022-09-15T01:31:07.184Z,99400.19
2022-09-15T01:34:02.440Z,99411.00
2022-09-15T01:36:54.380Z,99404.84
2022-09-15T01:39:25.112Z,99415.47
2022-09-15T01:42:04.955Z,99429.84
2022-09-15T01:44:37.652Z,99447.22
2022-09-15T01:47:09.362Z,99459.72
2022-09-15T01:49:51.516Z,99475.59
2022-09-15T01:52:20.379Z,99492.34
2022-09-15T01:54:50.411Z,99488.94
2022-09-15T01:57:17.648Z,99489.09
2022-09-15T01:59:44.383Z,99515.06
2022-09-15T02:02:37.210Z,99507.38
2022-09-15T02:05:15.125Z,99521.22
2022-09-15T02:08:20.598Z,99513.91
2022-09-15T02:10:51.275Z,99488.03
2022-09-15T02:13:25.601Z,99502.00
2022-09-15T02:15:57.341Z,99507.94
2022-09-15T02:18:37.620Z,99524.06
2022-09-15T02:21:11.792Z,99565.69
2022-09-15T02:23:44.827Z,99585.00
2022-09-15T02:26:16.948Z,99596.63
2022-09-15T02:28:46.672Z,99609.97
2022-09-15T02:31:17.128Z,99619.19
2022-09-15T02:33:50.794Z,99630.75
2022-09-15T02:36:20.173Z,99640.59
2022-09-15T02:38:54.144Z,99653.34
2022-09-15T02:41:21.038Z,99664.69
2022-09-15T02:43:49.127Z,99675.03
2022-09-15T02:46:18.212Z,99686.72
2022-09-15T02:48:44.633Z,99701.75
2022-09-15T02:51:11.319Z,99717.03
2022-09-15T02:53:37.786Z,99750.69
2022-09-15T02:56:05.263Z,99781.41
2022-09-15T02:58:32.022Z,99799.25
2022-09-15T03:00:58.466Z,99816.59
2022-09-15T03:03:24.914Z,99860.88
2022-09-15T03:05:51.328Z,99917.03
2022-09-15T03:08:17.716Z,99951.38
2022-09-15T03:10:44.064Z,100000.09
2022-09-15T03:13:10.421Z,100056.38
2022-09-15T03:15:36.956Z,100072.09
2022-09-15T03:18:03.359Z,100114.75
2022-09-15T03:20:29.714Z,100141.84
2022-09-15T03:22:56.230Z,100157.50
2022-09-15T03:25:22.646Z,100177.34
2022-09-15T03:27:49.087Z,100195.16
2022-09-15T03:30:15.493Z,100207.91
2022-09-15T03:32:41.921Z,100220.47
2022-09-15T03:35:08.831Z,100231.91
2022-09-15T03:37:35.747Z,100232.63
2022-09-15T03:40:02.453Z,100241.44
2022-09-15T03:42:28.910Z,100237.56
2022-09-15T03:44:55.276Z,100235.53
2022-09-15T03:47:21.702Z,100248.75
2022-09-15T03:49:48.078Z,100247.97
2022-09-15T03:52:14.473Z,100227.75
2022-09-15T03:54:40.817Z,100206.97
2022-09-15T03:57:07.181Z,100185.78
2022-09-15T03:59:33.595Z,100169.66
2022-09-15T04:02:00.353Z,100150.84
2022-09-15T04:04:26.962Z,100147.88
2022-09-15T04:06:53.376Z,100157.19
2022-09-15T04:09:20.447Z,100161.63
2022-09-15T04:11:47.106Z,100148.47
2022-09-15T04:14:13.514Z,100133.34
2022-09-15T04:16:39.937Z,100136.78
2022-09-15T04:19:06.423Z,100136.78
2022-09-15T04:21:32.821Z,100142.78
2022-09-15T04:23:59.161Z,100150.66
2022-09-15T04:26:31.759Z,100149.56
2022-09-15T04:29:03.631Z,100154.22
2022-09-15T04:31:31.417Z,100152.06
2022-09-15T04:33:58.226Z,100148.91
2022-09-15T04:36:26.786Z,100159.03
2022-09-15T04:38:53.159Z,100163.97
2022-09-15T04:41:19.797Z,100166.94
2022-09-15T04:43:46.707Z,100172.56
2022-09-15T04:46:14.175Z,100186.88
2022-09-15T04:48:41.121Z,100186.78
2022-09-15T04:51:11.640Z,100196.59
2022-09-15T04:53:38.500Z,100205.47
2022-09-15T04:56:10.191Z,100214.34
2022-09-15T04:58:41.607Z,100216.06
2022-09-15T05:01:14.024Z,100223.88
2022-09-15T05:03:41.042Z,100222.47
2022-09-15T05:06:10.442Z,100220.25
2022-09-15T05:08:37.375Z,100223.03
2022-09-15T05:11:06.489Z,100212.00
2022-09-15T05:13:34.192Z,100222.16
2022-09-15T05:16:12.162Z,100226.94
2022-09-15T05:18:39.897Z,100220.31
2022-09-15T05:21:08.518Z,100219.38
2022-09-15T05:23:36.460Z,100218.22
2022-09-15T05:26:06.681Z,100235.78
2022-09-15T05:28:34.763Z,100247.00
2022-09-15T05:31:01.564Z,100258.16
2022-09-15T05:33:28.155Z,100255.41
2022-09-15T05:35:58.999Z,100255.41
2022-09-15T05:38:26.386Z,100259.63
2022-09-15T05:40:52.849Z,100267.31
2022-09-15T05:43:19.264Z,100271.78
2022-09-15T05:45:54.537Z,100265.41
2022-09-15T05:48:21.246Z,100282.50
2022-09-15T05:50:52.583Z,100281.16
2022-09-15T05:53:19.566Z,100286.25
2022-09-15T05:55:46.006Z,100302.09
2022-09-15T05:58:13.388Z,100312.22
2022-09-15T06:00:40.215Z,100328.16
2022-09-15T06:03:06.737Z,100339.38
2022-09-15T06:05:33.294Z,100359.97
2022-09-15T06:07:59.756Z,100357.41
2022-09-15T06:10:26.185Z,100364.97
2022-09-15T06:12:53.276Z,100377.56
2022-09-15T06:15:20.762Z,100362.91
2022-09-15T06:17:47.276Z,100352.91
2022-09-15T06:20:14.051Z,100335.16
2022-09-15T06:22:40.884Z,100315.63
2022-09-15T06:25:08.023Z,100300.34
2022-09-15T06:27:34.477Z,100279.19
2022-09-15T06:30:00.869Z,100265.09
2022-09-15T06:32:27.276Z,100258.50
2022-09-15T06:34:53.711Z,100266.03
2022-09-15T06:37:20.064Z,100273.44
2022-09-15T06:39:46.479Z,100273.81
2022-09-15T06:42:14.000Z,100268.38
2022-09-15T06:44:40.498Z,100271.59
2022-09-15T06:47:06.938Z,100295.16
2022-09-15T06:49:33.547Z,100313.88
2022-09-15T06:51:59.886Z,100328.53
2022-09-15T06:54:26.241Z,100346.41
2022-09-15T06:56:52.652Z,100348.59
2022-09-15T06:59:19.066Z,100358.38
2022-09-15T07:01:45.431Z,100366.28
2022-09-15T07:04:11.976Z,100366.72
2022-09-15T07:06:39.675Z,100379.66
2022-09-15T07:09:06.443Z,100386.03
2022-09-15T07:11:33.203Z,100389.97
2022-09-15T07:13:59.654Z,100387.22
2022-09-15T07:16:26.388Z,100379.91
2022-09-15T07:18:55.212Z,100394.38
2022-09-15T07:21:21.649Z,100392.44
2022-09-15T07:23:49.240Z,100395.63
2022-09-15T07:26:22.480Z,100393.78
2022-09-15T07:29:10.308Z,100371.19
2022-09-15T07:31:38.501Z,100373.13
2022-09-15T07:34:05.475Z,100372.34
2022-09-15T07:36:32.172Z,100371.34
2022-09-15T07:38:58.728Z,100376.69
2022-09-15T07:41:27.724Z,100383.94
2022-09-15T07:43:56.552Z,100377.06
2022-09-15T07:46:24.854Z,100373.19
2022-09-15T07:48:53.354Z,100360.25
2022-09-15T07:51:20.042Z,100363.22
2022-09-15T07:53:47.977Z,100371.41
2022-09-15T07:56:15.268Z,100383.72
2022-09-15T07:58:41.916Z,100412.31
2022-09-15T08:01:09.712Z,100435.09
2022-09-15T08:03:40.717Z,100465.16
2022-09-15T08:06:07.190Z,100525.63
2022-09-15T08:08:33.698Z,100558.25
2022-09-15T08:11:00.063Z,100572.00
2022-09-15T08:13:26.462Z,100557.63
2022-09-15T08:15:54.091Z,100565.81
2022-09-15T08:18:20.547Z,100558.69
2022-09-15T08:20:46.975Z,100570.50
2022-09-15T08:23:13.400Z,100592.22
2022-09-15T08:25:39.818Z,100608.94
2022-09-15T08:28:06.352Z,100630.16
2022-09-15T08:30:32.830Z,100641.50
2022-09-15T08:32:59.249Z,100640.19
2022-09-15T08:35:25.754Z,100646.00
2022-09-15T08:37:53.860Z,100666.53
2022-09-15T08:40:28.905Z,100699.75
2022-09-15T08:42:59.924Z,100690.22
2022-09-15T08:45:29.825Z,100694.28
2022-09-15T08:48:00.032Z,100711.47
2022-09-15T08:50:31.281Z,100722.84
2022-09-15T08:53:06.340Z,100721.63
2022-09-15T08:56:10.121Z,100716.19
2022-09-15T08:58:37.551Z,100721.03
2022-09-15T09:01:32.952Z,100739.38
2022-09-15T09:04:18.262Z,100730.78
2022-09-15T09:07:26.124Z,100728.44
2022-09-15T09:09:55.047Z,100734.84
2022-09-15T09:12:30.483Z,100730.09
2022-09-15T09:15:33.828Z,100706.88
2022-09-15T09:18:22.360Z,100705.00
2022-09-15T09:20:58.128Z,100718.72
2022-09-15T09:23:28.960Z,100727.72
2022-09-15T09:25:57.538Z,100802.53
2022-09-15T09:28:37.195Z,100933.69
2022-09-15T09:31:06.310Z,101000.88
2022-09-15T09:33:49.803Z,101030.63
2022-09-15T09:36:16.276Z,101032.06
2022-09-15T09:38:45.158Z,101038.59
2022-09-15T09:41:33.714Z,101043.88
2022-09-15T09:44:00.112Z,101038.03
2022-09-15T09:46:26.490Z,101050.19
2022-09-15T09:49:04.185Z,101051.72
2022-09-15T09:51:37.877Z,101055.72
2022-09-15T09:54:14.874Z,101049.47
2022-09-15T09:56:43.892Z,101052.34
2022-09-15T09:59:49.332Z,101061.81
2022-09-15T10:02:17.360Z,101054.03
2022-09-15T10:05:13.988Z,101068.69
2022-09-15T10:07:42.687Z,101061.50
2022-09-15T10:10:22.984Z,101060.63
2022-09-15T10:12:50.929Z,101049.16
2022-09-15T10:15:24.445Z,101052.44
2022-09-15T10:17:52.612Z,101057.97
2022-09-15T10:20:50.060Z,101028.53
2022-09-15T10:23:16.420Z,100963.13
2022-09-15T10:25:59.095Z,100926.59
2022-09-15T10:28:27.785Z,100954.56
2022-09-15T10:31:11.922Z,100970.47
2022-09-15T10:33:40.795Z,101026.19
2022-09-15T10:36:25.824Z,101010.84
2022-09-15T10:39:05.706Z,101035.75
2022-09-15T10:41:35.076Z,101039.97
2022-09-15T10:44:12.802Z,101030.38
2022-09-15T10:46:46.254Z,101015.41
2022-09-15T10:49:32.737Z,101021.44
2022-09-15T10:52:05.228Z,101043.97
2022-09-15T10:54:52.866Z,101059.25
2022-09-15T10:57:47.946Z,101070.22
2022-09-15T11:00:22.007Z,101061.53
2022-09-15T11:02:48.387Z,101055.31
2022-09-15T11:05:22.501Z,101051.13
2022-09-15T11:08:14.270Z,101047.75
2022-09-15T11:10:49.060Z,101056.34
2022-09-15T11:13:18.195Z,101071.84
2022-09-15T11:16:02.958Z,101077.69
2022-09-15T11:18:32.404Z,101052.91
2022-09-15T11:21:01.760Z,101048.06
2022-09-15T11:23:40.699Z,101015.03
2022-09-15T11:26:15.888Z,100976.44
2022-09-15T11:28:48.857Z,100947.78
2022-09-15T11:31:27.599Z,101017.13
2022-09-15T11:34:03.145Z,101037.72
2022-09-15T11:36:50.971Z,101033.81
2022-09-15T11:39:25.972Z,101044.97
2022-09-15T11:41:58.632Z,101060.16
2022-09-15T11:44:34.720Z,101061.53
2022-09-15T11:47:19.696Z,101069.72
2022-09-15T11:50:07.879Z,101086.31
2022-09-15T11:52:46.330Z,101066.59
2022-09-15T11:55:24.706Z,101054.91
2022-09-15T11:57:59.607Z,101045.97
2022-09-15T12:00:26.521Z,101060.09
2022-09-15T12:03:30.130Z,101061.56
2022-09-15T12:06:07.047Z,101057.00
2022-09-15T12:08:56.343Z,101057.28
2022-09-15T12:11:26.400Z,101033.78
2022-09-15T12:13:54.568Z,100990.84
2022-09-15T12:16:21.943Z,100955.66
2022-09-15T12:18:57.393Z,100916.47
2022-09-15T12:21:50.843Z,100903.25
2022-09-15T12:24:38.147Z,100864.44
2022-09-15T12:27:04.817Z,100832.84
2022-09-15T12:29:39.497Z,100840.91
2022-09-15T12:32:23.409Z,100857.25
2022-09-15T12:35:25.346Z,100878.94
2022-09-15T12:37:57.408Z,100903.66
2022-09-15T12:40:30.820Z,100882.09
2022-09-15T12:42:57.691Z,100886.38
2022-09-15T12:45:37.417Z,100899.13
2022-09-15T12:48:06.170Z,100937.19
2022-09-15T12:50:35.942Z,100921.94
2022-09-15T12:53:18.996Z,100983.28
2022-09-15T12:55:51.785Z,101006.63
2022-09-15T12:58:24.421Z,100960.28
2022-09-15T13:01:16.528Z,100874.16
2022-09-15T13:06:29.314Z,100711.19
2022-09-15T13:09:25.987Z,100667.81
2022-09-15T13:11:55.568Z,100615.25
2022-09-15T13:14:33.112Z,100593.88
2022-09-15T13:17:08.017Z,100561.13
2022-09-15T13:19:34.522Z,100548.19
2022-09-15T13:22:26.466Z,100561.28
2022-09-15T13:25:11.432Z,100566.50
2022-09-15T13:27:42.549Z,100599.75
2022-09-15T13:30:21.001Z,100642.91
2022-09-15T13:33:02.341Z,100645.66
2022-09-15T13:35:31.813Z,100673.97
2022-09-15T13:38:08.524Z,100662.44
2022-09-15T13:40:50.836Z,100639.56
2022-09-15T13:43:33.320Z,100644.06
2022-09-15T13:46:32.577Z,100673.91
2022-09-15T13:49:36.011Z,100677.22
2022-09-15T13:52:18.839Z,100665.66
2022-09-15T13:55:16.130Z,100676.66
2022-09-15T14:00:50.889Z,100668.63
2022-09-15T14:03:21.040Z,100651.25
2022-09-15T14:05:47.454Z,100612.13
2022-09-15T14:08:20.918Z,100560.56
2022-09-15T14:10:54.066Z,100536.28
2022-09-15T14:13:22.720Z,100511.13
2022-09-15T14:16:02.840Z,100480.88
2022-09-15T14:18:30.211Z,100473.72
2022-09-15T14:21:05.486Z,100460.28
2022-09-15T14:23:32.217Z,100459.91
2022-09-15T14:26:02.287Z,100482.06
2022-09-15T14:28:32.001Z,100486.69
2022-09-15T14:31:00.421Z,100506.34
2022-09-15T14:33:37.961Z,100514.31
2022-09-15T14:36:34.413Z,100510.09
2022-09-15T14:39:17.794Z,100500.06
2022-09-15T14:41:44.683Z,100481.31
2022-09-15T14:47:28.198Z,100451.13
2022-09-15T14:50:15.676Z,100420.88
2022-09-15T14:53:02.301Z,100397.75
2022-09-15T14:55:38.173Z,100393.84
2022-09-15T14:58:13.189Z,100365.03
2022-09-15T15:00:53.559Z,100370.25
2022-09-15T15:03:31.110Z,100353.13
2022-09-15T15:06:12.797Z,100325.88
2022-09-15T15:08:57.069Z,100305.66
2022-09-15T15:11:24.033Z,100319.63
2022-09-15T15:13:52.624Z,100333.56
2022-09-15T15:16:27.207Z,100344.63
2022-09-15T15:18:54.515Z,100352.94
2022-09-15T15:21:42.635Z,100369.69
2022-09-15T15:24:09.049Z,100424.38
2022-09-15T15:26:41.450Z,100460.75
2022-09-15T15:29:28.983Z,100483.69
2022-09-15T15:32:04.862Z,100495.06
2022-09-15T15:34:31.486Z,100501.16
2022-09-15T15:37:09.877Z,100514.81
2022-09-15T15:39:36.463Z,100507.47
2022-09-15T15:42:07.091Z,100466.84
2022-09-15T15:44:33.584Z,100393.47
2022-09-15T15:47:02.555Z,100339.31
2022-09-15T15:49:32.450Z,100305.31
2022-09-15T15:52:00.860Z,100304.44
2022-09-15T15:54:27.641Z,100333.38
2022-09-15T15:56:54.220Z,100343.81
2022-09-15T15:59:21.111Z,100367.78
2022-09-15T16:01:51.351Z,100387.47
2022-09-15T16:04:17.895Z,100389.88
2022-09-15T16:06:45.094Z,100376.00
2022-09-15T16:09:14.301Z,100363.84
2022-09-15T16:11:41.973Z,100347.28
2022-09-15T16:14:12.183Z,100332.78
2022-09-15T16:16:38.882Z,100312.44
2022-09-15T16:19:05.362Z,100320.03
2022-09-15T16:21:34.972Z,100329.09
2022-09-15T16:24:01.562Z,100320.47
2022-09-15T16:26:28.151Z,100329.78
2022-09-15T16:28:54.510Z,100334.91
2022-09-15T16:31:22.310Z,100338.59
2022-09-15T16:33:49.564Z,100355.91
2022-09-15T16:36:19.510Z,100370.41
2022-09-15T16:38:46.090Z,100348.25
2022-09-15T16:41:23.739Z,100296.34
2022-09-15T16:43:50.191Z,100246.16
2022-09-15T16:46:16.875Z,100188.66
2022-09-15T16:48:43.768Z,100067.91
2022-09-15T16:51:28.951Z,100010.38
2022-09-15T16:53:57.938Z,99981.94
2022-09-15T16:56:24.536Z,99905.66
2022-09-15T16:58:50.918Z,99894.13
2022-09-15T17:01:20.090Z,99855.84
2022-09-15T17:03:47.192Z,99827.19
2022-09-15T17:06:16.452Z,99806.72
2022-09-15T17:08:43.135Z,99772.28
2022-09-15T17:11:18.365Z,99724.91
2022-09-15T17:13:45.769Z,99688.00
2022-09-15T17:16:14.596Z,99653.00
2022-09-15T17:18:41.097Z,99645.72
2022-09-15T17:21:11.151Z,99615.97
2022-09-15T17:23:40.090Z,99589.34
2022-09-15T17:26:18.111Z,99550.03
2022-09-15T17:28:44.457Z,99538.63
2022-09-15T17:31:22.563Z,99510.06
2022-09-15T17:33:50.303Z,99492.09
2022-09-15T17:36:17.457Z,99497.38
2022-09-15T17:38:44.290Z,99507.53
2022-09-15T17:41:19.206Z,99506.13
2022-09-15T17:43:45.857Z,99505.16
2022-09-15T17:46:12.379Z,99487.00
2022-09-15T17:48:39.178Z,99479.06
2022-09-15T17:51:07.093Z,99468.59
2022-09-15T17:53:33.468Z,99464.38
2022-09-15T17:55:59.857Z,99457.13
2022-09-15T17:58:26.410Z,99458.00
2022-09-15T18:00:53.789Z,99464.25
2022-09-15T18:03:28.843Z,99457.91
2022-09-15T18:05:57.028Z,99451.66
2022-09-15T18:08:23.970Z,99452.59
2022-09-15T18:10:51.295Z,99462.75
2022-09-15T18:13:20.231Z,99451.72
2022-09-15T18:15:47.267Z,99452.19
2022-09-15T18:18:17.035Z,99442.66
2022-09-15T18:20:44.234Z,99424.41
2022-09-15T18:23:17.410Z,99433.50
2022-09-15T18:25:44.696Z,99438.25
2022-09-15T18:28:11.101Z,99421.16
2022-09-15T18:30:40.038Z,99428.94
2022-09-15T18:33:12.506Z,99427.06
2022-09-15T18:35:39.707Z,99412.16
2022-09-15T18:38:06.849Z,99408.47
2022-09-15T18:40:33.242Z,99399.28
2022-09-15T18:42:59.754Z,99414.59
2022-09-15T18:45:26.537Z,99403.84
2022-09-15T18:47:53.945Z,99401.84
2022-09-15T18:50:23.057Z,99387.56
2022-09-15T18:52:49.802Z,99387.97
2022-09-15T18:55:19.861Z,99373.63
2022-09-15T18:57:46.910Z,99351.34
2022-09-15T19:00:16.519Z,99351.44
2022-09-15T19:02:43.939Z,99342.88
2022-09-15T19:05:10.973Z,99353.75
2022-09-15T19:07:38.617Z,99361.66
2022-09-15T19:10:07.013Z,99360.94
2022-09-15T19:12:35.702Z,99353.41
2022-09-15T19:15:03.704Z,99365.81
2022-09-15T19:17:30.118Z,99364.94
2022-09-15T19:19:56.657Z,99360.84
2022-09-15T19:22:23.338Z,99364.88
2022-09-15T19:24:49.734Z,99363.28
2022-09-15T19:27:16.189Z,99361.78
2022-09-15T19:29:42.595Z,99392.41
2022-09-15T19:32:12.099Z,99407.59
2022-09-15T19:34:40.301Z,99412.25
2022-09-15T19:37:12.124Z,99398.44
2022-09-15T19:39:40.720Z,99419.03
2022-09-15T19:42:08.031Z,99420.50
2022-09-15T19:44:34.527Z,99428.72
2022-09-15T19:47:01.114Z,99439.09
2022-09-15T19:49:27.702Z,99452.63
2022-09-15T19:51:54.490Z,99451.03
2022-09-15T19:54:27.195Z,99439.94
2022-09-15T19:56:53.837Z,99386.53
2022-09-15T19:59:20.773Z,99384.81
2022-09-15T20:01:48.926Z,99394.53
2022-09-15T20:04:16.171Z,99393.03
2022-09-15T20:06:42.637Z,99413.09
2022-09-15T20:09:10.185Z,99432.59
2022-09-15T20:11:36.741Z,99420.53
2022-09-15T20:14:04.034Z,99422.03
2022-09-15T20:16:30.497Z,99424.44
2022-09-15T20:18:57.053Z,99425.28
2022-09-15T20:21:48.635Z,99440.19
2022-09-15T20:24:15.205Z,99442.13
2022-09-15T20:26:43.257Z,99446.28
2022-09-15T20:29:10.238Z,99449.66
2022-09-15T20:31:36.662Z,99460.50
2022-09-15T20:34:03.203Z,99458.00
2022-09-15T20:36:33.240Z,99455.91
2022-09-15T20:39:00.474Z,99256.28
2022-09-15T20:41:28.334Z,99258.91
2022-09-15T20:43:55.506Z,99246.13
2022-09-15T20:46:23.527Z,99251.06
2022-09-15T20:48:55.621Z,99237.25
2022-09-15T20:51:24.428Z,99247.19
2022-09-15T20:53:53.521Z,99243.59
2022-09-15T20:56:22.024Z,99250.78
2022-09-15T20:58:48.529Z,99255.41
2022-09-15T21:01:18.705Z,99267.00
2022-09-15T21:03:47.319Z,99270.81
2022-09-15T21:06:19.549Z,99270.28
2022-09-15T21:08:47.309Z,99274.25
2022-09-15T21:11:15.088Z,99279.19
2022-09-15T21:13:42.128Z,99276.66
2022-09-15T21:16:11.955Z,99285.72
2022-09-15T21:18:39.942Z,99287.50
2022-09-15T21:21:09.934Z,99295.97
2022-09-15T21:23:42.037Z,99286.34
2022-09-15T21:26:11.132Z,99294.63
2022-09-15T21:28:41.727Z,99308.75
2022-09-15T21:31:11.475Z,99308.09
2022-09-15T21:33:39.336Z,99325.25
2022-09-15T21:36:08.914Z,99315.00
2022-09-15T21:38:36.872Z,99314.16
2022-09-15T21:41:04.668Z,99309.13
2022-09-15T21:43:32.526Z,99320.91
2022-09-15T21:45:59.169Z,99332.47
2022-09-15T21:48:25.937Z,99314.22
2022-09-15T21:50:53.766Z,99331.81
2022-09-15T21:53:21.106Z,99335.84
2022-09-15T21:55:48.453Z,99336.09
2022-09-15T21:58:14.877Z,99335.25
2022-09-15T22:00:42.427Z,99331.91
2022-09-15T22:03:08.958Z,99328.53
2022-09-15T22:05:36.843Z,99336.09
2022-09-15T22:08:06.806Z,99330.81
2022-09-15T22:10:35.473Z,99323.63
2022-09-15T22:13:02.093Z,99326.56
2022-09-15T22:15:31.238Z,99317.91
2022-09-15T22:17:57.847Z,99317.25
2022-09-15T22:20:24.992Z,99316.63
2022-09-15T22:22:58.568Z,99323.91
2022-09-15T22:25:25.009Z,99318.91
2022-09-15T22:27:51.452Z,99307.25
2022-09-15T22:30:18.132Z,99304.94
2022-09-15T22:32:45.683Z,99295.47
2022-09-15T22:35:12.224Z,99297.34
2022-09-15T22:37:38.697Z,99292.00
2022-09-15T22:40:07.760Z,99283.78
2022-09-15T22:42:36.837Z,99280.28
2022-09-15T22:45:03.784Z,99267.31
2022-09-15T22:47:33.287Z,99272.25
2022-09-15T22:49:59.814Z,99269.75
2022-09-15T22:52:26.286Z,99271.50
2022-09-15T22:54:52.695Z,99270.75
2022-09-15T22:57:19.211Z,99265.50
2022-09-15T22:59:47.907Z,99277.19
2022-09-15T23:02:14.403Z,99273.63
2022-09-15T23:04:40.870Z,99274.34
2022-09-15T23:07:07.430Z,99276.97
2022-09-15T23:09:33.833Z,99274.34
2022-09-15T23:12:00.289Z,99279.59
2022-09-15T23:14:26.829Z,99277.53
2022-09-15T23:16:53.263Z,99288.09
2022-09-15T23:19:19.715Z,99281.75
2022-09-15T23:21:46.119Z,99287.69
2022-09-15T23:24:12.664Z,99304.34
2022-09-15T23:26:39.107Z,99307.50
2022-09-15T23:29:05.529Z,99308.88
2022-09-15T23:31:31.934Z,99326.91
2022-09-15T23:33:58.423Z,99314.63
2022-09-15T23:36:27.094Z,99334.47
2022-09-15T23:38:53.618Z,99332.81
2022-09-15T23:41:20.080Z,99350.34
2022-09-15T23:43:49.215Z,99352.22
2022-09-15T23:46:15.940Z,99360.38
2022-09-15T23:48:42.424Z,99372.16
2022-09-15T23:51:08.859Z,99380.53
2022-09-15T23:53:35.391Z,99382.53
2022-09-15T23:56:02.534Z,99382.44
2022-09-15T23:58:28.992Z,99393.06
